sensor_id;sensor_type;location;lat;lon;timestamp;P1;durP1;ratioP1;P2;durP2;ratioP2
12356;SDS011;6243;51.244;6.774;2022-08-21T00:01:03;10.10;;;4.40;;
12356;SDS011;6243;51.244;6.774;2022-08-21T00:03:35;9.97;;;4.57;;
12356;SDS011;6243;51.244;6.774;2022-08-21T00:06:00;6.77;;;4.27;;
12356;SDS011;6243;51.244;6.774;2022-08-21T00:08:26;5.23;;;4.17;;
12356;SDS011;6243;51.244;6.774;2022-08-21T00:10:52;6.93;;;4.50;;
12356;SDS011;6243;51.244;6.774;2022-08-21T00:13:19;6.43;;;4.37;;
12356;SDS011;6243;51.244;6.774;2022-08-21T00:15:45;6.20;;;4.37;;
12356;SDS011;6243;51.244;6.774;2022-08-21T00:18:10;7.57;;;4.50;;
12356;SDS011;6243;51.244;6.774;2022-08-21T00:20:37;7.00;;;4.70;;
12356;SDS011;6243;51.244;6.774;2022-08-21T00:23:03;6.83;;;4.07;;
12356;SDS011;6243;51.244;6.774;2022-08-21T00:25:29;6.37;;;3.83;;
12356;SDS011;6243;51.244;6.774;2022-08-21T00:27:56;7.97;;;3.90;;
12356;SDS011;6243;51.244;6.774;2022-08-21T00:30:24;4.93;;;4.00;;
12356;SDS011;6243;51.244;6.774;2022-08-21T00:32:51;6.47;;;4.23;;
12356;SDS011;6243;51.244;6.774;2022-08-21T00:35:20;6.80;;;4.20;;
12356;SDS011;6243;51.244;6.774;2022-08-21T00:37:48;6.33;;;4.33;;
12356;SDS011;6243;51.244;6.774;2022-08-21T00:40:14;6.17;;;4.27;;
12356;SDS011;6243;51.244;6.774;2022-08-21T00:42:43;6.57;;;4.30;;
12356;SDS011;6243;51.244;6.774;2022-08-21T00:45:09;7.10;;;4.27;;
12356;SDS011;6243;51.244;6.774;2022-08-21T00:47:37;5.97;;;4.30;;
12356;SDS011;6243;51.244;6.774;2022-08-21T00:50:03;10.10;;;3.83;;
12356;SDS011;6243;51.244;6.774;2022-08-21T00:52:32;7.20;;;4.20;;
12356;SDS011;6243;51.244;6.774;2022-08-21T00:55:00;4.97;;;4.07;;
12356;SDS011;6243;51.244;6.774;2022-08-21T00:57:27;6.37;;;4.23;;
12356;SDS011;6243;51.244;6.774;2022-08-21T00:59:56;6.13;;;4.20;;
12356;SDS011;6243;51.244;6.774;2022-08-21T01:02:24;5.10;;;4.33;;
12356;SDS011;6243;51.244;6.774;2022-08-21T01:04:52;7.57;;;4.30;;
12356;SDS011;6243;51.244;6.774;2022-08-21T01:07:17;6.77;;;3.97;;
12356;SDS011;6243;51.244;6.774;2022-08-21T01:09:43;5.57;;;4.13;;
12356;SDS011;6243;51.244;6.774;2022-08-21T01:12:11;7.30;;;4.60;;
12356;SDS011;6243;51.244;6.774;2022-08-21T01:14:37;8.70;;;4.33;;
12356;SDS011;6243;51.244;6.774;2022-08-21T01:17:03;6.07;;;4.07;;
12356;SDS011;6243;51.244;6.774;2022-08-21T01:19:30;10.30;;;4.60;;
12356;SDS011;6243;51.244;6.774;2022-08-21T01:21:57;10.07;;;4.57;;
12356;SDS011;6243;51.244;6.774;2022-08-21T01:24:22;5.83;;;4.40;;
12356;SDS011;6243;51.244;6.774;2022-08-21T01:26:48;4.67;;;3.90;;
12356;SDS011;6243;51.244;6.774;2022-08-21T01:29:15;7.90;;;4.20;;
12356;SDS011;6243;51.244;6.774;2022-08-21T01:31:47;5.87;;;4.17;;
12356;SDS011;6243;51.244;6.774;2022-08-21T01:34:14;6.57;;;4.43;;
12356;SDS011;6243;51.244;6.774;2022-08-21T01:36:39;7.40;;;4.63;;
12356;SDS011;6243;51.244;6.774;2022-08-21T01:39:06;10.07;;;5.27;;
12356;SDS011;6243;51.244;6.774;2022-08-21T01:41:32;7.73;;;4.63;;
12356;SDS011;6243;51.244;6.774;2022-08-21T01:43:58;8.20;;;4.63;;
12356;SDS011;6243;51.244;6.774;2022-08-21T01:46:23;5.37;;;4.47;;
12356;SDS011;6243;51.244;6.774;2022-08-21T01:48:49;8.93;;;4.67;;
12356;SDS011;6243;51.244;6.774;2022-08-21T01:51:14;5.87;;;4.40;;
12356;SDS011;6243;51.244;6.774;2022-08-21T01:53:39;7.87;;;5.30;;
12356;SDS011;6243;51.244;6.774;2022-08-21T01:56:08;8.50;;;4.67;;
12356;SDS011;6243;51.244;6.774;2022-08-21T01:58:35;6.97;;;4.80;;
12356;SDS011;6243;51.244;6.774;2022-08-21T02:01:01;10.53;;;6.73;;
12356;SDS011;6243;51.244;6.774;2022-08-21T02:03:27;6.77;;;5.63;;
12356;SDS011;6243;51.244;6.774;2022-08-21T02:05:53;10.37;;;5.43;;
12356;SDS011;6243;51.244;6.774;2022-08-21T02:08:18;9.00;;;6.33;;
12356;SDS011;6243;51.244;6.774;2022-08-21T02:10:44;8.40;;;6.70;;
12356;SDS011;6243;51.244;6.774;2022-08-21T02:13:11;8.93;;;6.70;;
12356;SDS011;6243;51.244;6.774;2022-08-21T02:15:36;8.20;;;5.93;;
12356;SDS011;6243;51.244;6.774;2022-08-21T02:18:02;8.67;;;6.83;;
12356;SDS011;6243;51.244;6.774;2022-08-21T02:20:31;7.63;;;6.47;;
12356;SDS011;6243;51.244;6.774;2022-08-21T02:22:59;8.23;;;7.27;;
12356;SDS011;6243;51.244;6.774;2022-08-21T02:25:24;8.03;;;6.77;;
12356;SDS011;6243;51.244;6.774;2022-08-21T02:27:50;8.03;;;6.77;;
12356;SDS011;6243;51.244;6.774;2022-08-21T02:30:21;10.87;;;5.73;;
12356;SDS011;6243;51.244;6.774;2022-08-21T02:32:49;7.57;;;5.87;;
12356;SDS011;6243;51.244;6.774;2022-08-21T02:35:15;10.63;;;6.83;;
12356;SDS011;6243;51.244;6.774;2022-08-21T02:37:45;9.40;;;6.50;;
12356;SDS011;6243;51.244;6.774;2022-08-21T02:40:13;8.17;;;6.60;;
12356;SDS011;6243;51.244;6.774;2022-08-21T02:42:41;9.77;;;7.70;;
12356;SDS011;6243;51.244;6.774;2022-08-21T02:45:07;11.07;;;7.30;;
12356;SDS011;6243;51.244;6.774;2022-08-21T02:47:34;13.53;;;7.87;;
12356;SDS011;6243;51.244;6.774;2022-08-21T02:49:59;9.20;;;7.27;;
12356;SDS011;6243;51.244;6.774;2022-08-21T02:52:25;9.10;;;6.17;;
12356;SDS011;6243;51.244;6.774;2022-08-21T02:54:50;8.03;;;6.43;;
12356;SDS011;6243;51.244;6.774;2022-08-21T02:57:16;12.53;;;7.47;;
12356;SDS011;6243;51.244;6.774;2022-08-21T02:59:41;8.57;;;6.53;;
12356;SDS011;6243;51.244;6.774;2022-08-21T03:02:07;8.17;;;5.97;;
12356;SDS011;6243;51.244;6.774;2022-08-21T03:04:34;7.53;;;6.80;;
12356;SDS011;6243;51.244;6.774;2022-08-21T03:06:59;8.70;;;7.80;;
12356;SDS011;6243;51.244;6.774;2022-08-21T03:09:25;13.27;;;8.03;;
12356;SDS011;6243;51.244;6.774;2022-08-21T03:11:50;7.43;;;6.70;;
12356;SDS011;6243;51.244;6.774;2022-08-21T03:14:16;11.33;;;7.53;;
12356;SDS011;6243;51.244;6.774;2022-08-21T03:16:41;10.60;;;7.70;;
12356;SDS011;6243;51.244;6.774;2022-08-21T03:19:07;11.43;;;6.80;;
12356;SDS011;6243;51.244;6.774;2022-08-21T03:21:34;7.83;;;6.90;;
12356;SDS011;6243;51.244;6.774;2022-08-21T03:23:59;10.63;;;7.27;;
12356;SDS011;6243;51.244;6.774;2022-08-21T03:26:25;9.53;;;7.17;;
12356;SDS011;6243;51.244;6.774;2022-08-21T03:28:50;7.40;;;6.67;;
12356;SDS011;6243;51.244;6.774;2022-08-21T03:31:16;8.37;;;7.30;;
12356;SDS011;6243;51.244;6.774;2022-08-21T03:33:41;7.73;;;6.90;;
12356;SDS011;6243;51.244;6.774;2022-08-21T03:36:07;9.20;;;7.40;;
12356;SDS011;6243;51.244;6.774;2022-08-21T03:38:37;11.10;;;7.77;;
12356;SDS011;6243;51.244;6.774;2022-08-21T03:41:03;8.90;;;7.20;;
12356;SDS011;6243;51.244;6.774;2022-08-21T03:43:29;8.60;;;7.73;;
12356;SDS011;6243;51.244;6.774;2022-08-21T03:45:55;10.67;;;8.03;;
12356;SDS011;6243;51.244;6.774;2022-08-21T03:48:21;10.13;;;7.13;;
12356;SDS011;6243;51.244;6.774;2022-08-21T03:50:46;12.60;;;8.67;;
12356;SDS011;6243;51.244;6.774;2022-08-21T03:53:13;8.57;;;7.77;;
12356;SDS011;6243;51.244;6.774;2022-08-21T03:55:41;13.63;;;8.20;;
12356;SDS011;6243;51.244;6.774;2022-08-21T03:58:07;9.40;;;8.40;;
12356;SDS011;6243;51.244;6.774;2022-08-21T04:00:33;10.27;;;7.33;;
12356;SDS011;6243;51.244;6.774;2022-08-21T04:02:58;11.07;;;8.50;;
12356;SDS011;6243;51.244;6.774;2022-08-21T04:05:24;13.77;;;8.63;;
12356;SDS011;6243;51.244;6.774;2022-08-21T04:07:50;10.43;;;8.30;;
12356;SDS011;6243;51.244;6.774;2022-08-21T04:10:15;10.43;;;9.07;;
12356;SDS011;6243;51.244;6.774;2022-08-21T04:12:42;11.60;;;9.27;;
12356;SDS011;6243;51.244;6.774;2022-08-21T04:15:08;10.93;;;9.57;;
12356;SDS011;6243;51.244;6.774;2022-08-21T04:17:34;10.40;;;8.70;;
12356;SDS011;6243;51.244;6.774;2022-08-21T04:19:59;10.93;;;9.00;;
12356;SDS011;6243;51.244;6.774;2022-08-21T04:22:25;10.70;;;9.60;;
12356;SDS011;6243;51.244;6.774;2022-08-21T04:24:50;13.07;;;9.43;;
12356;SDS011;6243;51.244;6.774;2022-08-21T04:27:16;11.03;;;9.00;;
12356;SDS011;6243;51.244;6.774;2022-08-21T04:29:43;12.57;;;8.83;;
12356;SDS011;6243;51.244;6.774;2022-08-21T04:32:08;11.63;;;9.50;;
12356;SDS011;6243;51.244;6.774;2022-08-21T04:34:34;9.57;;;8.57;;
12356;SDS011;6243;51.244;6.774;2022-08-21T04:36:59;9.93;;;8.80;;
12356;SDS011;6243;51.244;6.774;2022-08-21T04:39:24;11.73;;;9.43;;
12356;SDS011;6243;51.244;6.774;2022-08-21T04:41:50;13.10;;;9.70;;
12356;SDS011;6243;51.244;6.774;2022-08-21T04:44:15;11.47;;;9.33;;
12356;SDS011;6243;51.244;6.774;2022-08-21T04:46:42;9.97;;;8.97;;
12356;SDS011;6243;51.244;6.774;2022-08-21T04:49:08;10.83;;;8.97;;
12356;SDS011;6243;51.244;6.774;2022-08-21T04:51:34;13.00;;;9.43;;
12356;SDS011;6243;51.244;6.774;2022-08-21T04:54:05;13.27;;;9.37;;
12356;SDS011;6243;51.244;6.774;2022-08-21T04:56:34;13.53;;;8.93;;
12356;SDS011;6243;51.244;6.774;2022-08-21T04:59:06;10.83;;;8.90;;
12356;SDS011;6243;51.244;6.774;2022-08-21T05:01:38;12.30;;;10.10;;
12356;SDS011;6243;51.244;6.774;2022-08-21T05:04:07;12.43;;;9.77;;
12356;SDS011;6243;51.244;6.774;2022-08-21T05:06:36;11.07;;;9.67;;
12356;SDS011;6243;51.244;6.774;2022-08-21T05:09:03;11.60;;;8.90;;
12356;SDS011;6243;51.244;6.774;2022-08-21T05:11:29;15.83;;;10.27;;
12356;SDS011;6243;51.244;6.774;2022-08-21T05:13:56;11.37;;;9.87;;
12356;SDS011;6243;51.244;6.774;2022-08-21T05:16:21;11.17;;;9.50;;
12356;SDS011;6243;51.244;6.774;2022-08-21T05:18:47;15.07;;;10.17;;
12356;SDS011;6243;51.244;6.774;2022-08-21T05:21:13;14.53;;;10.10;;
12356;SDS011;6243;51.244;6.774;2022-08-21T05:23:39;12.97;;;9.60;;
12356;SDS011;6243;51.244;6.774;2022-08-21T05:26:04;13.47;;;9.17;;
12356;SDS011;6243;51.244;6.774;2022-08-21T05:28:30;11.60;;;9.77;;
12356;SDS011;6243;51.244;6.774;2022-08-21T05:30:56;11.73;;;9.53;;
12356;SDS011;6243;51.244;6.774;2022-08-21T05:33:22;12.43;;;9.17;;
12356;SDS011;6243;51.244;6.774;2022-08-21T05:35:49;13.77;;;9.53;;
12356;SDS011;6243;51.244;6.774;2022-08-21T05:38:16;13.93;;;9.57;;
12356;SDS011;6243;51.244;6.774;2022-08-21T05:40:41;14.00;;;8.80;;
12356;SDS011;6243;51.244;6.774;2022-08-21T05:43:07;12.30;;;8.63;;
12356;SDS011;6243;51.244;6.774;2022-08-21T05:45:32;10.03;;;8.30;;
12356;SDS011;6243;51.244;6.774;2022-08-21T05:48:04;10.90;;;8.30;;
12356;SDS011;6243;51.244;6.774;2022-08-21T05:50:30;10.50;;;7.70;;
12356;SDS011;6243;51.244;6.774;2022-08-21T05:52:56;8.80;;;7.90;;
12356;SDS011;6243;51.244;6.774;2022-08-21T05:55:23;13.03;;;7.73;;
12356;SDS011;6243;51.244;6.774;2022-08-21T05:57:48;8.70;;;6.50;;
12356;SDS011;6243;51.244;6.774;2022-08-21T06:00:14;9.30;;;6.93;;
12356;SDS011;6243;51.244;6.774;2022-08-21T06:02:40;7.87;;;5.83;;
12356;SDS011;6243;51.244;6.774;2022-08-21T06:05:06;12.43;;;5.97;;
12356;SDS011;6243;51.244;6.774;2022-08-21T06:07:32;8.77;;;5.73;;
12356;SDS011;6243;51.244;6.774;2022-08-21T06:09:57;10.67;;;6.30;;
12356;SDS011;6243;51.244;6.774;2022-08-21T06:12:24;10.20;;;5.33;;
12356;SDS011;6243;51.244;6.774;2022-08-21T06:14:50;9.10;;;5.50;;
12356;SDS011;6243;51.244;6.774;2022-08-21T06:17:16;7.57;;;5.47;;
12356;SDS011;6243;51.244;6.774;2022-08-21T06:19:41;9.40;;;5.23;;
12356;SDS011;6243;51.244;6.774;2022-08-21T06:22:06;7.80;;;4.67;;
12356;SDS011;6243;51.244;6.774;2022-08-21T06:24:32;6.80;;;4.97;;
12356;SDS011;6243;51.244;6.774;2022-08-21T06:26:57;9.17;;;4.83;;
12356;SDS011;6243;51.244;6.774;2022-08-21T06:29:30;6.07;;;4.57;;
12356;SDS011;6243;51.244;6.774;2022-08-21T06:31:55;8.70;;;5.17;;
12356;SDS011;6243;51.244;6.774;2022-08-21T06:34:21;9.00;;;4.30;;
12356;SDS011;6243;51.244;6.774;2022-08-21T06:36:46;7.57;;;4.40;;
12356;SDS011;6243;51.244;6.774;2022-08-21T06:39:12;6.80;;;3.83;;
12356;SDS011;6243;51.244;6.774;2022-08-21T06:41:37;8.50;;;4.17;;
12356;SDS011;6243;51.244;6.774;2022-08-21T06:44:03;8.53;;;4.23;;
12356;SDS011;6243;51.244;6.774;2022-08-21T06:46:29;6.87;;;3.90;;
12356;SDS011;6243;51.244;6.774;2022-08-21T06:48:56;8.73;;;3.93;;
12356;SDS011;6243;51.244;6.774;2022-08-21T06:51:22;7.77;;;3.97;;
12356;SDS011;6243;51.244;6.774;2022-08-21T06:53:48;8.57;;;3.63;;
12356;SDS011;6243;51.244;6.774;2022-08-21T06:56:14;5.33;;;3.50;;
12356;SDS011;6243;51.244;6.774;2022-08-21T06:58:39;6.03;;;3.60;;
12356;SDS011;6243;51.244;6.774;2022-08-21T07:01:05;7.67;;;3.97;;
12356;SDS011;6243;51.244;6.774;2022-08-21T07:03:33;5.53;;;2.93;;
12356;SDS011;6243;51.244;6.774;2022-08-21T07:06:00;5.63;;;3.50;;
12356;SDS011;6243;51.244;6.774;2022-08-21T07:08:26;10.70;;;3.53;;
12356;SDS011;6243;51.244;6.774;2022-08-21T07:10:52;7.77;;;3.37;;
12356;SDS011;6243;51.244;6.774;2022-08-21T07:13:19;5.93;;;3.17;;
12356;SDS011;6243;51.244;6.774;2022-08-21T07:15:45;6.83;;;3.23;;
12356;SDS011;6243;51.244;6.774;2022-08-21T07:18:10;6.00;;;3.20;;
12356;SDS011;6243;51.244;6.774;2022-08-21T07:20:38;5.07;;;3.17;;
12356;SDS011;6243;51.244;6.774;2022-08-21T07:23:05;5.73;;;3.13;;
12356;SDS011;6243;51.244;6.774;2022-08-21T07:25:33;6.47;;;3.07;;
12356;SDS011;6243;51.244;6.774;2022-08-21T07:27:59;7.13;;;3.13;;
12356;SDS011;6243;51.244;6.774;2022-08-21T07:30:24;7.47;;;3.20;;
12356;SDS011;6243;51.244;6.774;2022-08-21T07:32:51;5.67;;;2.70;;
12356;SDS011;6243;51.244;6.774;2022-08-21T07:35:16;7.03;;;2.97;;
12356;SDS011;6243;51.244;6.774;2022-08-21T07:37:43;7.70;;;3.10;;
12356;SDS011;6243;51.244;6.774;2022-08-21T07:40:09;5.70;;;3.17;;
12356;SDS011;6243;51.244;6.774;2022-08-21T07:42:39;3.10;;;2.40;;
12356;SDS011;6243;51.244;6.774;2022-08-21T07:45:05;3.93;;;2.57;;
12356;SDS011;6243;51.244;6.774;2022-08-21T07:47:32;3.87;;;2.50;;
12356;SDS011;6243;51.244;6.774;2022-08-21T07:49:57;3.33;;;2.50;;
12356;SDS011;6243;51.244;6.774;2022-08-21T07:52:23;4.47;;;2.60;;
12356;SDS011;6243;51.244;6.774;2022-08-21T07:54:49;7.67;;;2.27;;
12356;SDS011;6243;51.244;6.774;2022-08-21T07:57:15;4.90;;;2.13;;
12356;SDS011;6243;51.244;6.774;2022-08-21T07:59:40;3.90;;;2.13;;
12356;SDS011;6243;51.244;6.774;2022-08-21T08:02:06;3.27;;;2.20;;
12356;SDS011;6243;51.244;6.774;2022-08-21T08:04:31;4.73;;;2.20;;
12356;SDS011;6243;51.244;6.774;2022-08-21T08:06:57;6.80;;;2.40;;
12356;SDS011;6243;51.244;6.774;2022-08-21T08:09:22;5.63;;;2.07;;
12356;SDS011;6243;51.244;6.774;2022-08-21T08:11:49;5.33;;;2.30;;
12356;SDS011;6243;51.244;6.774;2022-08-21T08:14:15;5.40;;;1.80;;
12356;SDS011;6243;51.244;6.774;2022-08-21T08:16:40;5.27;;;2.37;;
12356;SDS011;6243;51.244;6.774;2022-08-21T08:19:06;3.53;;;2.00;;
12356;SDS011;6243;51.244;6.774;2022-08-21T08:21:32;3.93;;;2.10;;
12356;SDS011;6243;51.244;6.774;2022-08-21T08:23:57;3.70;;;2.27;;
12356;SDS011;6243;51.244;6.774;2022-08-21T08:26:23;4.73;;;1.90;;
12356;SDS011;6243;51.244;6.774;2022-08-21T08:28:49;3.40;;;2.00;;
12356;SDS011;6243;51.244;6.774;2022-08-21T08:31:15;4.83;;;2.27;;
12356;SDS011;6243;51.244;6.774;2022-08-21T08:33:41;4.53;;;2.30;;
12356;SDS011;6243;51.244;6.774;2022-08-21T08:36:12;4.67;;;2.13;;
12356;SDS011;6243;51.244;6.774;2022-08-21T08:38:38;4.47;;;2.37;;
12356;SDS011;6243;51.244;6.774;2022-08-21T08:41:06;3.97;;;2.17;;
12356;SDS011;6243;51.244;6.774;2022-08-21T08:43:36;3.30;;;1.77;;
12356;SDS011;6243;51.244;6.774;2022-08-21T08:46:04;4.37;;;1.90;;
12356;SDS011;6243;51.244;6.774;2022-08-21T08:48:41;4.93;;;2.20;;
12356;SDS011;6243;51.244;6.774;2022-08-21T08:51:13;3.13;;;2.03;;
12356;SDS011;6243;51.244;6.774;2022-08-21T08:53:45;3.47;;;1.90;;
12356;SDS011;6243;51.244;6.774;2022-08-21T08:56:15;3.90;;;2.03;;
12356;SDS011;6243;51.244;6.774;2022-08-21T08:58:43;3.33;;;2.07;;
12356;SDS011;6243;51.244;6.774;2022-08-21T09:01:13;4.90;;;2.27;;
12356;SDS011;6243;51.244;6.774;2022-08-21T09:03:42;7.97;;;2.40;;
12356;SDS011;6243;51.244;6.774;2022-08-21T09:06:10;2.17;;;1.53;;
12356;SDS011;6243;51.244;6.774;2022-08-21T09:08:50;4.37;;;2.30;;
12356;SDS011;6243;51.244;6.774;2022-08-21T09:11:26;3.27;;;1.43;;
12356;SDS011;6243;51.244;6.774;2022-08-21T09:13:56;3.47;;;1.80;;
12356;SDS011;6243;51.244;6.774;2022-08-21T09:16:38;3.30;;;1.60;;
12356;SDS011;6243;51.244;6.774;2022-08-21T09:19:21;3.97;;;1.70;;
12356;SDS011;6243;51.244;6.774;2022-08-21T09:22:00;2.83;;;1.77;;
12356;SDS011;6243;51.244;6.774;2022-08-21T09:24:34;2.80;;;1.70;;
12356;SDS011;6243;51.244;6.774;2022-08-21T09:27:08;1.50;;;1.30;;
12356;SDS011;6243;51.244;6.774;2022-08-21T09:29:37;1.93;;;1.43;;
12356;SDS011;6243;51.244;6.774;2022-08-21T09:32:08;3.70;;;1.87;;
12356;SDS011;6243;51.244;6.774;2022-08-21T09:34:36;3.67;;;1.47;;
12356;SDS011;6243;51.244;6.774;2022-08-21T09:37:01;3.77;;;1.70;;
12356;SDS011;6243;51.244;6.774;2022-08-21T09:39:28;3.10;;;1.47;;
12356;SDS011;6243;51.244;6.774;2022-08-21T09:41:56;2.17;;;1.33;;
12356;SDS011;6243;51.244;6.774;2022-08-21T09:44:24;2.73;;;1.50;;
12356;SDS011;6243;51.244;6.774;2022-08-21T09:46:51;3.33;;;1.33;;
12356;SDS011;6243;51.244;6.774;2022-08-21T09:49:26;3.07;;;1.47;;
12356;SDS011;6243;51.244;6.774;2022-08-21T09:51:52;3.27;;;1.60;;
12356;SDS011;6243;51.244;6.774;2022-08-21T09:54:18;4.30;;;1.70;;
12356;SDS011;6243;51.244;6.774;2022-08-21T09:56:53;3.23;;;1.67;;
12356;SDS011;6243;51.244;6.774;2022-08-21T09:59:24;2.67;;;1.80;;
12356;SDS011;6243;51.244;6.774;2022-08-21T10:01:52;3.90;;;1.40;;
12356;SDS011;6243;51.244;6.774;2022-08-21T10:04:21;2.57;;;1.57;;
12356;SDS011;6243;51.244;6.774;2022-08-21T10:06:48;2.37;;;1.50;;
12356;SDS011;6243;51.244;6.774;2022-08-21T10:09:16;3.73;;;1.63;;
12356;SDS011;6243;51.244;6.774;2022-08-21T10:11:43;2.80;;;1.50;;
12356;SDS011;6243;51.244;6.774;2022-08-21T10:14:18;4.03;;;1.90;;
12356;SDS011;6243;51.244;6.774;2022-08-21T10:16:56;2.97;;;1.50;;
12356;SDS011;6243;51.244;6.774;2022-08-21T10:19:34;3.47;;;1.70;;
12356;SDS011;6243;51.244;6.774;2022-08-21T10:22:10;3.23;;;1.50;;
12356;SDS011;6243;51.244;6.774;2022-08-21T10:24:44;2.43;;;1.50;;
12356;SDS011;6243;51.244;6.774;2022-08-21T10:27:20;4.87;;;1.73;;
12356;SDS011;6243;51.244;6.774;2022-08-21T10:29:56;3.17;;;1.60;;
12356;SDS011;6243;51.244;6.774;2022-08-21T10:32:29;3.33;;;1.40;;
12356;SDS011;6243;51.244;6.774;2022-08-21T10:35:06;3.87;;;1.87;;
12356;SDS011;6243;51.244;6.774;2022-08-21T10:37:39;4.80;;;1.60;;
12356;SDS011;6243;51.244;6.774;2022-08-21T10:40:19;4.53;;;1.73;;
12356;SDS011;6243;51.244;6.774;2022-08-21T10:42:52;4.13;;;1.60;;
12356;SDS011;6243;51.244;6.774;2022-08-21T10:45:44;2.80;;;1.50;;
12356;SDS011;6243;51.244;6.774;2022-08-21T10:48:19;3.30;;;1.53;;
12356;SDS011;6243;51.244;6.774;2022-08-21T10:50:52;3.43;;;1.60;;
12356;SDS011;6243;51.244;6.774;2022-08-21T10:53:28;3.90;;;1.60;;
12356;SDS011;6243;51.244;6.774;2022-08-21T10:56:13;3.57;;;1.17;;
12356;SDS011;6243;51.244;6.774;2022-08-21T10:58:44;2.17;;;1.40;;
12356;SDS011;6243;51.244;6.774;2022-08-21T11:01:15;3.13;;;1.57;;
12356;SDS011;6243;51.244;6.774;2022-08-21T11:03:46;3.37;;;1.73;;
12356;SDS011;6243;51.244;6.774;2022-08-21T11:06:18;2.80;;;1.50;;
12356;SDS011;6243;51.244;6.774;2022-08-21T11:08:49;2.73;;;1.53;;
12356;SDS011;6243;51.244;6.774;2022-08-21T11:11:18;2.23;;;1.63;;
12356;SDS011;6243;51.244;6.774;2022-08-21T11:13:49;2.07;;;1.30;;
12356;SDS011;6243;51.244;6.774;2022-08-21T11:16:21;4.80;;;1.73;;
12356;SDS011;6243;51.244;6.774;2022-08-21T11:18:52;3.33;;;1.77;;
12356;SDS011;6243;51.244;6.774;2022-08-21T11:21:33;2.50;;;1.57;;
12356;SDS011;6243;51.244;6.774;2022-08-21T11:24:04;2.70;;;1.47;;
12356;SDS011;6243;51.244;6.774;2022-08-21T11:26:43;2.53;;;1.53;;
12356;SDS011;6243;51.244;6.774;2022-08-21T11:29:13;2.70;;;1.43;;
12356;SDS011;6243;51.244;6.774;2022-08-21T11:31:48;3.73;;;1.57;;
12356;SDS011;6243;51.244;6.774;2022-08-21T11:34:29;2.53;;;1.20;;
12356;SDS011;6243;51.244;6.774;2022-08-21T11:37:08;3.17;;;1.40;;
12356;SDS011;6243;51.244;6.774;2022-08-21T11:39:41;1.70;;;1.23;;
12356;SDS011;6243;51.244;6.774;2022-08-21T11:42:17;3.50;;;1.60;;
12356;SDS011;6243;51.244;6.774;2022-08-21T11:44:50;2.00;;;1.50;;
12356;SDS011;6243;51.244;6.774;2022-08-21T11:47:24;3.10;;;1.57;;
12356;SDS011;6243;51.244;6.774;2022-08-21T11:50:03;3.00;;;1.60;;
12356;SDS011;6243;51.244;6.774;2022-08-21T11:52:38;4.80;;;1.70;;
12356;SDS011;6243;51.244;6.774;2022-08-21T11:55:10;3.13;;;1.50;;
12356;SDS011;6243;51.244;6.774;2022-08-21T11:57:48;1.90;;;1.10;;
12356;SDS011;6243;51.244;6.774;2022-08-21T12:00:20;2.30;;;1.43;;
12356;SDS011;6243;51.244;6.774;2022-08-21T12:02:50;1.90;;;1.40;;
12356;SDS011;6243;51.244;6.774;2022-08-21T12:05:25;3.73;;;1.47;;
12356;SDS011;6243;51.244;6.774;2022-08-21T12:08:04;2.80;;;1.50;;
12356;SDS011;6243;51.244;6.774;2022-08-21T12:10:36;1.77;;;1.30;;
12356;SDS011;6243;51.244;6.774;2022-08-21T12:13:08;2.43;;;1.47;;
12356;SDS011;6243;51.244;6.774;2022-08-21T12:15:35;3.77;;;1.33;;
12356;SDS011;6243;51.244;6.774;2022-08-21T12:18:02;1.30;;;1.20;;
12356;SDS011;6243;51.244;6.774;2022-08-21T12:20:34;2.37;;;1.60;;
12356;SDS011;6243;51.244;6.774;2022-08-21T12:23:16;2.23;;;1.40;;
12356;SDS011;6243;51.244;6.774;2022-08-21T12:25:44;2.00;;;1.10;;
12356;SDS011;6243;51.244;6.774;2022-08-21T12:28:25;3.50;;;1.70;;
12356;SDS011;6243;51.244;6.774;2022-08-21T12:30:52;2.00;;;1.23;;
12356;SDS011;6243;51.244;6.774;2022-08-21T12:33:19;2.03;;;1.20;;
12356;SDS011;6243;51.244;6.774;2022-08-21T12:35:49;2.57;;;1.40;;
12356;SDS011;6243;51.244;6.774;2022-08-21T12:38:18;2.70;;;1.30;;
12356;SDS011;6243;51.244;6.774;2022-08-21T12:40:47;2.33;;;1.23;;
12356;SDS011;6243;51.244;6.774;2022-08-21T12:43:18;2.17;;;1.30;;
12356;SDS011;6243;51.244;6.774;2022-08-21T12:45:50;2.63;;;1.23;;
12356;SDS011;6243;51.244;6.774;2022-08-21T12:48:18;4.37;;;1.30;;
12356;SDS011;6243;51.244;6.774;2022-08-21T12:50:48;3.93;;;1.40;;
12356;SDS011;6243;51.244;6.774;2022-08-21T12:53:22;1.60;;;1.27;;
12356;SDS011;6243;51.244;6.774;2022-08-21T12:55:52;1.67;;;1.50;;
12356;SDS011;6243;51.244;6.774;2022-08-21T12:58:18;2.10;;;1.20;;
12356;SDS011;6243;51.244;6.774;2022-08-21T13:00:47;2.43;;;1.30;;
12356;SDS011;6243;51.244;6.774;2022-08-21T13:03:14;3.27;;;1.40;;
12356;SDS011;6243;51.244;6.774;2022-08-21T13:05:41;2.27;;;1.43;;
12356;SDS011;6243;51.244;6.774;2022-08-21T13:08:07;3.10;;;1.40;;
12356;SDS011;6243;51.244;6.774;2022-08-21T13:10:39;2.00;;;1.20;;
12356;SDS011;6243;51.244;6.774;2022-08-21T13:13:06;2.03;;;1.33;;
12356;SDS011;6243;51.244;6.774;2022-08-21T13:15:35;2.83;;;1.37;;
12356;SDS011;6243;51.244;6.774;2022-08-21T13:18:03;2.07;;;1.30;;
12356;SDS011;6243;51.244;6.774;2022-08-21T13:20:30;2.43;;;1.43;;
12356;SDS011;6243;51.244;6.774;2022-08-21T13:22:57;1.63;;;1.17;;
12356;SDS011;6243;51.244;6.774;2022-08-21T13:25:26;4.37;;;1.17;;
12356;SDS011;6243;51.244;6.774;2022-08-21T13:27:59;2.20;;;1.40;;
12356;SDS011;6243;51.244;6.774;2022-08-21T13:30:26;3.23;;;1.40;;
12356;SDS011;6243;51.244;6.774;2022-08-21T13:32:55;2.83;;;1.40;;
12356;SDS011;6243;51.244;6.774;2022-08-21T13:35:26;1.73;;;1.33;;
12356;SDS011;6243;51.244;6.774;2022-08-21T13:37:55;1.80;;;1.10;;
12356;SDS011;6243;51.244;6.774;2022-08-21T13:40:23;2.73;;;1.33;;
12356;SDS011;6243;51.244;6.774;2022-08-21T13:42:51;1.47;;;1.30;;
12356;SDS011;6243;51.244;6.774;2022-08-21T13:45:22;2.77;;;1.43;;
12356;SDS011;6243;51.244;6.774;2022-08-21T13:47:49;2.00;;;1.20;;
12356;SDS011;6243;51.244;6.774;2022-08-21T13:50:16;2.57;;;1.40;;
12356;SDS011;6243;51.244;6.774;2022-08-21T13:52:53;3.27;;;1.47;;
12356;SDS011;6243;51.244;6.774;2022-08-21T13:55:21;3.10;;;1.50;;
12356;SDS011;6243;51.244;6.774;2022-08-21T13:57:47;2.23;;;1.20;;
12356;SDS011;6243;51.244;6.774;2022-08-21T14:00:26;3.33;;;1.40;;
12356;SDS011;6243;51.244;6.774;2022-08-21T14:02:54;2.43;;;1.40;;
12356;SDS011;6243;51.244;6.774;2022-08-21T14:05:27;4.17;;;1.70;;
12356;SDS011;6243;51.244;6.774;2022-08-21T14:07:57;2.83;;;1.40;;
12356;SDS011;6243;51.244;6.774;2022-08-21T14:10:28;3.20;;;1.30;;
12356;SDS011;6243;51.244;6.774;2022-08-21T14:12:55;2.60;;;1.30;;
12356;SDS011;6243;51.244;6.774;2022-08-21T14:15:26;2.83;;;1.20;;
12356;SDS011;6243;51.244;6.774;2022-08-21T14:17:54;2.10;;;1.33;;
12356;SDS011;6243;51.244;6.774;2022-08-21T14:20:32;2.50;;;1.27;;
12356;SDS011;6243;51.244;6.774;2022-08-21T14:22:59;4.07;;;1.77;;
12356;SDS011;6243;51.244;6.774;2022-08-21T14:25:29;2.23;;;1.57;;
12356;SDS011;6243;51.244;6.774;2022-08-21T14:28:03;1.90;;;1.40;;
12356;SDS011;6243;51.244;6.774;2022-08-21T14:30:38;2.80;;;1.53;;
12356;SDS011;6243;51.244;6.774;2022-08-21T14:33:08;3.10;;;1.53;;
12356;SDS011;6243;51.244;6.774;2022-08-21T14:35:35;2.80;;;1.50;;
12356;SDS011;6243;51.244;6.774;2022-08-21T14:38:01;2.47;;;1.70;;
12356;SDS011;6243;51.244;6.774;2022-08-21T14:40:26;3.23;;;1.70;;
12356;SDS011;6243;51.244;6.774;2022-08-21T14:42:52;1.97;;;1.00;;
12356;SDS011;6243;51.244;6.774;2022-08-21T14:45:20;4.80;;;1.80;;
12356;SDS011;6243;51.244;6.774;2022-08-21T14:47:51;3.20;;;1.40;;
12356;SDS011;6243;51.244;6.774;2022-08-21T14:50:17;2.30;;;1.47;;
12356;SDS011;6243;51.244;6.774;2022-08-21T14:52:43;2.23;;;1.40;;
12356;SDS011;6243;51.244;6.774;2022-08-21T14:55:08;2.33;;;1.27;;
12356;SDS011;6243;51.244;6.774;2022-08-21T14:57:34;6.03;;;1.63;;
12356;SDS011;6243;51.244;6.774;2022-08-21T15:00:00;3.60;;;1.40;;
12356;SDS011;6243;51.244;6.774;2022-08-21T15:02:25;3.23;;;1.67;;
12356;SDS011;6243;51.244;6.774;2022-08-21T15:04:52;2.93;;;1.53;;